Time;durP1;ratioP1;P1;durP2;ratioP2;P2;SDS_P1;SDS_P2;PMS_P1;PMS_P2;Temp;Humidity;BMP_temperature;BMP_pressure;BME280_temperature;BME280_humidity;BME280_pressure;Samples;Min_cycle;Max_cycle;Signal;HPM_P1;HPM_P2
2022/07/02 00:01:51;;;;;;;1.73;0.55;;;12.30;99.90;;;11.79;100.00;98179.75;5020028;28;20103;-66
2022/07/02 00:04:21;;;;;;;1.77;0.60;;;12.40;99.90;;;11.67;100.00;98183.63;5020870;28;20049;-65
2022/07/02 00:06:48;;;;;;;3.60;0.57;;;12.40;99.90;;;11.65;100.00;98180.22;5015201;28;20223;-66
2022/07/02 00:09:15;;;;;;;1.65;0.57;;;12.30;99.90;;;11.53;100.00;98178.09;5019163;28;20526;-66
2022/07/02 00:11:43;;;;;;;0.95;0.50;;;12.30;99.90;;;11.68;100.00;98177.53;5019201;28;20128;-65
2022/07/02 00:14:10;;;;;;;2.00;0.68;;;12.20;99.90;;;11.54;100.00;98171.13;5018662;28;20136;-64
2022/07/02 00:16:38;;;;;;;3.47;0.73;;;12.20;99.90;;;11.36;100.00;98180.44;5020662;28;21085;-65
2022/07/02 00:19:05;;;;;;;2.13;0.63;;;12.10;99.90;;;11.13;100.00;98187.34;5022835;28;20192;-66
2022/07/02 00:21:33;;;;;;;4.57;0.50;;;12.10;99.90;;;11.36;100.00;98185.66;5018741;28;20057;-65
2022/07/02 00:24:00;;;;;;;2.97;0.77;;;12.00;99.90;;;11.16;100.00;98179.44;5018569;28;20080;-66
2022/07/02 00:26:35;;;;;;;2.42;0.70;;;12.00;99.90;;;11.28;100.00;98184.19;5020086;28;20056;-65
2022/07/02 00:29:19;;;;;;;1.08;0.50;;;11.90;99.90;;;11.16;100.00;98186.38;5023462;28;20156;-66
2022/07/02 00:31:48;;;;;;;1.20;0.52;;;11.80;99.90;;;11.27;100.00;98185.09;5019966;28;20620;-66
2022/07/02 00:34:16;;;;;;;1.88;0.60;;;11.80;99.90;;;11.39;100.00;98185.56;5023406;28;20111;-66
2022/07/02 00:36:44;;;;;;;2.10;0.60;;;11.90;99.90;;;11.38;100.00;98184.72;5023347;28;20049;-66
2022/07/02 00:39:11;;;;;;;2.13;0.75;;;11.90;99.90;;;11.40;100.00;98182.03;5026108;28;20050;-66
2022/07/02 00:41:38;;;;;;;1.33;0.52;;;11.90;99.90;;;11.38;100.00;98183.84;5021791;28;20077;-66
2022/07/02 00:44:05;;;;;;;3.67;0.65;;;11.90;99.90;;;11.11;100.00;98191.75;5023087;28;20113;-65
2022/07/02 00:46:36;;;;;;;2.00;0.65;;;11.80;99.90;;;11.28;100.00;98196.34;5022989;28;20045;-66
2022/07/02 00:49:03;;;;;;;4.03;0.63;;;11.70;99.90;;;10.95;100.00;98194.03;5021899;28;20150;-66
2022/07/02 00:51:33;;;;;;;2.28;0.90;;;11.70;99.90;;;10.75;100.00;98199.03;5021538;28;20133;-66
2022/07/02 00:54:02;;;;;;;3.58;0.80;;;11.60;99.90;;;10.62;100.00;98196.81;5022050;28;20682;-65
2022/07/02 00:56:29;;;;;;;3.35;0.70;;;11.50;99.90;;;10.81;100.00;98201.41;5022325;28;20508;-65
2022/07/02 00:58:56;;;;;;;2.42;0.90;;;11.50;99.90;;;10.97;100.00;98202.63;5018393;28;21493;-66
2022/07/02 01:01:23;;;;;;;1.55;0.60;;;11.50;99.90;;;11.01;100.00;98198.97;5022784;28;20328;-65
2022/07/02 01:03:52;;;;;;;1.50;0.70;;;11.60;99.90;;;10.96;100.00;98198.28;5025597;28;20144;-64
2022/07/02 01:06:21;;;;;;;8.73;1.40;;;11.60;99.90;;;10.88;100.00;98202.94;5022481;28;20100;-66
2022/07/02 01:11:36;;;;;;;4.75;0.85;;;11.60;99.90;;;10.96;100.00;98200.06;5023192;28;20630;-66
2022/07/02 01:14:04;;;;;;;1.60;0.70;;;11.70;99.90;;;11.17;100.00;98198.47;5022039;28;20057;-65
2022/07/02 01:16:31;;;;;;;1.67;0.93;;;11.60;99.90;;;11.00;100.00;98194.69;5021301;28;20509;-66
2022/07/02 01:18:58;;;;;;;2.33;0.60;;;11.60;99.90;;;10.86;100.00;98195.19;5019222;28;20054;-66
2022/07/02 01:21:25;;;;;;;2.63;0.70;;;11.60;99.90;;;10.83;100.00;98192.69;5018134;28;20077;-66
2022/07/02 01:23:53;;;;;;;3.95;0.60;;;11.60;99.90;;;10.82;100.00;98187.53;5020846;28;20551;-66
2022/07/02 01:26:20;;;;;;;2.38;0.60;;;11.50;99.90;;;10.86;100.00;98189.13;5020309;28;20060;-66
2022/07/02 01:28:47;;;;;;;1.50;0.73;;;11.50;99.90;;;10.84;100.00;98183.16;5022993;28;20053;-66
2022/07/02 01:31:14;;;;;;;3.10;1.98;;;11.50;99.90;;;10.92;100.00;98175.91;5020557;28;20046;-65
2022/07/02 01:33:41;;;;;;;2.90;0.70;;;11.50;99.90;;;10.60;100.00;98185.63;5021626;28;20081;-66
2022/07/02 01:36:08;;;;;;;1.10;0.60;;;11.50;99.90;;;10.64;100.00;98191.59;5023494;28;20143;-65
2022/07/02 01:38:35;;;;;;;1.77;0.50;;;11.50;99.90;;;10.69;100.00;98192.28;5020828;28;20089;-66
2022/07/02 01:43:47;;;;;;;3.58;0.60;;;11.40;99.90;;;10.76;100.00;98195.53;5021514;28;20107;-65
2022/07/02 01:46:14;;;;;;;1.10;0.60;;;11.40;99.90;;;10.87;100.00;98196.00;5022249;28;20056;-65
2022/07/02 01:48:41;;;;;;;2.58;0.50;;;11.40;99.90;;;10.77;100.00;98192.88;5017594;28;20072;-65
2022/07/02 01:51:08;;;;;;;3.38;0.75;;;11.30;99.90;;;10.63;100.00;98195.09;5019421;28;20045;-66
2022/07/02 01:53:35;;;;;;;4.57;0.60;;;11.40;99.90;;;10.61;100.00;98191.72;5022192;28;20048;-66
2022/07/02 01:56:03;;;;;;;2.78;0.70;;;11.30;99.90;;;10.51;100.00;98196.31;5022382;28;20480;-64
2022/07/02 01:58:30;;;;;;;3.17;1.02;;;11.30;99.90;;;10.14;100.00;98196.63;5024020;28;20111;-66
2022/07/02 02:00:56;;;;;;;3.45;1.00;;;11.30;99.90;;;10.07;100.00;98190.78;5017121;28;20057;-65
2022/07/02 02:03:25;;;;;;;1.92;0.80;;;11.20;99.90;;;9.95;100.00;98189.41;5022051;28;20049;-66
2022/07/02 02:05:53;;;;;;;2.53;0.95;;;11.10;99.90;;;9.99;100.00;98195.34;5019112;28;20092;-65
2022/07/02 02:08:20;;;;;;;1.33;0.60;;;11.10;99.90;;;9.98;100.00;98193.66;5018695;28;20042;-66
2022/07/02 02:10:47;;;;;;;3.17;1.10;;;11.00;99.90;;;9.82;100.00;98196.69;5019251;28;20176;-66
2022/07/02 02:13:18;;;;;;;3.55;1.00;;;;;;;9.74;100.00;98195.22;5011564;28;20133;-65
2022/07/02 02:15:45;;;;;;;4.72;1.00;;;10.70;99.90;;;9.85;100.00;98195.75;5021014;28;20132;-66
2022/07/02 02:18:12;;;;;;;2.50;0.70;;;10.70;99.90;;;10.15;100.00;98191.41;5022305;28;20088;-66
2022/07/02 02:20:39;;;;;;;2.55;0.98;;;10.70;99.90;;;10.25;100.00;98192.78;5020635;28;20049;-65
2022/07/02 02:23:06;;;;;;;1.60;0.80;;;10.80;99.90;;;10.24;100.00;98201.50;5019066;28;20041;-66
2022/07/02 02:25:33;;;;;;;2.45;0.85;;;10.90;99.90;;;10.16;100.00;98195.66;5017703;28;20742;-65
2022/07/02 02:28:00;;;;;;;1.88;0.80;;;11.10;99.90;;;10.21;100.00;98193.78;5021300;28;20048;-66
2022/07/02 02:30:27;;;;;;;2.22;0.70;;;11.00;99.90;;;10.30;100.00;98190.09;5018055;28;20136;-66
2022/07/02 02:32:54;;;;;;;3.88;0.70;;;11.00;99.90;;;10.30;100.00;98194.44;5019761;28;20588;-66
2022/07/02 02:35:21;;;;;;;2.90;0.52;;;11.00;99.90;;;10.10;100.00;98189.81;5018721;28;20199;-66
2022/07/02 02:37:48;;;;;;;1.83;0.70;;;11.00;99.90;;;10.30;100.00;98186.66;5018728;28;20058;-67
2022/07/02 02:40:15;;;;;;;1.70;0.60;;;10.90;99.90;;;10.40;100.00;98182.84;5021143;28;20049;-67
2022/07/02 02:42:42;;;;;;;5.05;0.90;;;10.90;99.90;;;10.27;100.00;98183.22;5021276;28;20163;-66
2022/07/02 02:45:09;;;;;;;3.35;1.00;;;10.80;99.90;;;10.07;100.00;98182.16;5017153;28;20439;-65
2022/07/02 02:47:37;;;;;;;2.65;0.75;;;10.80;99.90;;;10.07;100.00;98184.75;5021819;28;20133;-66
2022/07/02 02:50:04;;;;;;;2.80;0.80;;;10.70;99.90;;;9.79;100.00;98194.19;5015309;28;20597;-65
2022/07/02 02:52:31;;;;;;;2.13;0.88;;;10.50;99.90;;;9.75;100.00;98197.78;5016828;28;20046;-67
2022/07/02 02:55:00;;;;;;;3.63;0.90;;;10.50;99.90;;;9.61;100.00;98202.50;5019570;28;20485;-66
2022/07/02 02:57:27;;;;;;;3.58;1.00;;;10.40;99.90;;;9.61;100.00;98203.34;5017355;28;20517;-67
2022/07/02 02:59:54;;;;;;;6.57;1.27;;;10.40;99.90;;;9.41;100.00;98213.44;5018073;28;20460;-66
2022/07/02 03:02:21;;;;;;;6.35;1.40;;;10.40;99.90;;;9.27;100.00;98215.56;5017530;28;20446;-67
2022/07/02 03:04:48;;;;;;;7.13;1.08;;;10.30;99.90;;;9.42;100.00;98217.75;5018919;28;20073;-65
2022/07/02 03:07:15;;;;;;;5.38;1.10;;;10.30;99.90;;;9.47;100.00;98210.69;5019375;28;20085;-66
2022/07/02 03:09:43;;;;;;;4.32;0.88;;;10.30;99.90;;;9.67;100.00;98212.72;5018623;28;20045;-65
2022/07/02 03:12:11;;;;;;;4.32;1.35;;;10.30;99.90;;;9.60;100.00;98226.72;5017750;28;20124;-64
2022/07/02 03:14:38;;;;;;;14.82;1.20;;;10.30;99.90;;;9.51;100.00;98229.56;5016977;28;20080;-65
2022/07/02 03:17:05;;;;;;;2.58;0.95;;;10.30;99.90;;;9.43;100.00;98224.59;5017623;28;20057;-65
2022/07/02 03:19:33;;;;;;;2.45;0.90;;;10.40;99.90;;;9.54;100.00;98237.28;5018225;28;20045;-65
2022/07/02 03:22:00;;;;;;;2.50;0.93;;;10.40;99.90;;;9.70;100.00;98233.34;5016468;28;20156;-65
2022/07/02 03:24:27;;;;;;;3.30;0.90;;;10.30;99.90;;;9.60;100.00;98244.84;5020470;28;20168;-66
2022/07/02 03:26:54;;;;;;;4.97;1.30;;;10.30;99.90;;;9.59;100.00;98235.41;5020714;28;20504;-65
2022/07/02 03:29:23;;;;;;;3.40;0.70;;;10.30;99.90;;;9.73;100.00;98238.44;5016879;28;20124;-66
2022/07/02 03:31:50;;;;;;;2.28;1.02;;;10.30;99.90;;;9.44;100.00;98239.25;5015214;28;20133;-66
2022/07/02 03:34:17;;;;;;;3.78;0.70;;;10.30;99.90;;;9.70;100.00;98237.69;5019098;28;20042;-66
2022/07/02 03:36:44;;;;;;;3.25;0.75;;;10.30;99.90;;;9.53;100.00;98236.41;5021536;28;20149;-66
2022/07/02 03:39:11;;;;;;;2.42;0.60;;;10.30;99.90;;;9.79;100.00;98235.69;5021859;28;20045;-65
2022/07/02 03:41:38;;;;;;;3.13;0.73;;;10.30;99.90;;;9.78;100.00;98241.78;5019765;28;20867;-66
2022/07/02 03:44:05;;;;;;;1.15;0.60;;;10.30;99.90;;;9.94;100.00;98242.16;5018355;28;20151;-65
2022/07/02 03:46:32;;;;;;;4.05;0.95;;;10.30;99.90;;;9.83;100.00;98244.25;5017795;28;20130;-66
2022/07/02 03:48:59;;;;;;;4.72;1.10;;;10.30;99.90;;;9.75;100.00;98243.59;5020324;28;20046;-65
2022/07/02 03:51:26;;;;;;;2.67;0.80;;;10.40;99.90;;;9.91;100.00;98236.22;5019934;28;20052;-65
2022/07/02 03:53:53;;;;;;;2.67;0.70;;;10.40;99.90;;;9.60;100.00;98239.69;5020763;28;20053;-67
2022/07/02 03:56:20;;;;;;;1.55;0.60;;;10.50;99.90;;;9.64;100.00;98236.13;5014913;28;20049;-67
2022/07/02 03:58:47;;;;;;;1.40;0.60;;;10.40;99.90;;;9.78;100.00;98230.53;5019721;28;20057;-67
2022/07/02 04:01:14;;;;;;;4.25;0.80;;;10.40;99.90;;;9.70;100.00;98232.50;5018694;28;20464;-66
2022/07/02 04:03:42;;;;;;;1.88;0.60;;;10.40;99.90;;;9.76;100.00;98240.09;5025723;28;20128;-65
2022/07/02 04:06:09;;;;;;;1.42;0.60;;;10.40;99.90;;;9.87;100.00;98226.81;5019634;28;20148;-66
2022/07/02 04:08:36;;;;;;;4.38;0.55;;;10.50;99.90;;;9.85;100.00;98226.88;5023479;28;20136;-64
2022/07/02 04:11:03;;;;;;;2.75;0.60;;;10.50;99.90;;;9.91;100.00;98221.50;5024446;28;20199;-63
2022/07/02 04:13:30;;;;;;;2.13;0.50;;;10.50;99.90;;;10.03;100.00;98223.75;5021962;28;20510;-65
2022/07/02 04:15:57;;;;;;;2.17;0.70;;;10.50;99.90;;;10.06;100.00;98220.22;5023880;28;20121;-65
2022/07/02 04:18:25;;;;;;;1.17;0.60;;;10.60;99.90;;;10.14;100.00;98217.38;5019374;28;20058;-65
2022/07/02 04:20:52;;;;;;;1.02;0.60;;;10.70;99.90;;;10.10;100.00;98215.75;5023850;28;20056;-65
2022/07/02 04:23:19;;;;;;;2.22;0.70;;;10.80;99.90;;;10.27;100.00;98208.31;5022761;28;20054;-65
2022/07/02 04:25:46;;;;;;;4.57;0.88;;;10.80;99.90;;;10.04;100.00;98211.63;5022819;28;20053;-64
2022/07/02 04:28:13;;;;;;;8.52;0.80;;;10.90;99.90;;;10.12;100.00;98211.38;5019159;28;20117;-64
2022/07/02 04:30:40;;;;;;;2.05;0.77;;;10.90;99.90;;;10.35;100.00;98211.53;5022155;28;20078;-66
2022/07/02 04:33:07;;;;;;;1.58;0.70;;;11.00;99.90;;;10.50;100.00;98207.63;5020308;28;20049;-66
2022/07/02 04:35:34;;;;;;;2.17;0.60;;;11.10;99.90;;;10.59;100.00;98209.06;5021464;28;20144;-66
2022/07/02 04:38:01;;;;;;;2.55;0.80;;;11.20;99.90;;;10.72;100.00;98210.38;5022437;28;20137;-65
2022/07/02 04:40:28;;;;;;;4.47;0.90;;;11.30;99.90;;;10.78;100.00;98204.13;5022788;28;20088;-65
2022/07/02 04:42:55;;;;;;;1.27;0.60;;;11.50;99.90;;;10.95;100.00;98211.31;5023338;28;20045;-65
2022/07/02 04:45:22;;;;;;;4.30;0.80;;;11.60;99.90;;;10.98;100.00;98211.25;5023875;28;20073;-66
2022/07/02 04:47:49;;;;;;;3.30;0.70;;;11.70;99.90;;;10.92;100.00;98204.50;5018304;28;20084;-65
2022/07/02 04:50:16;;;;;;;3.22;0.70;;;11.80;99.90;;;11.10;100.00;98203.84;5018641;28;20129;-65
2022/07/02 04:52:48;;;;;;;3.45;0.75;;;11.70;99.90;;;11.02;100.00;98197.25;5022282;28;20141;-65
2022/07/02 04:55:15;;;;;;;1.50;0.63;;;11.70;99.90;;;11.07;100.00;98203.97;5017995;28;20197;-65
2022/07/02 04:57:42;;;;;;;3.00;0.60;;;11.80;99.90;;;11.07;100.00;98198.78;5019714;28;20502;-66
2022/07/02 05:00:10;;;;;;;1.38;0.60;;;11.90;99.90;;;11.13;100.00;98197.75;5020751;28;20310;-66
2022/07/02 05:02:37;;;;;;;1.92;0.60;;;11.90;99.90;;;11.37;100.00;98196.00;5019585;28;20080;-64
2022/07/02 05:05:05;;;;;;;1.60;0.60;;;12.00;99.90;;;11.55;100.00;98193.66;5021635;28;20080;-67
2022/07/02 05:07:33;;;;;;;4.15;0.70;;;12.10;99.90;;;11.50;100.00;98204.22;5020181;28;20054;-67
2022/07/02 05:09:59;;;;;;;1.33;0.60;;;12.20;99.90;;;11.69;100.00;98197.41;5024474;28;20077;-66
2022/07/02 05:12:27;;;;;;;2.28;0.63;;;12.30;99.90;;;11.88;100.00;98194.16;5020713;28;20090;-67
2022/07/02 05:14:54;;;;;;;1.30;0.70;;;12.50;99.90;;;11.83;100.00;98183.91;5019052;28;20053;-66
2022/07/02 05:17:21;;;;;;;1.70;0.60;;;12.70;99.90;;;11.97;100.00;98187.75;5024539;28;20124;-66
2022/07/02 05:19:48;;;;;;;2.85;0.63;;;12.80;99.90;;;12.18;100.00;98183.47;5023883;28;20054;-66
2022/07/02 05:22:15;;;;;;;2.75;0.80;;;12.90;99.90;;;12.16;100.00;98180.94;5019517;28;20162;-66
2022/07/02 05:24:42;;;;;;;1.77;0.60;;;13.00;99.90;;;12.41;100.00;98188.63;5021725;28;20120;-67
2022/07/02 05:27:09;;;;;;;2.67;0.52;;;13.20;99.90;;;12.54;100.00;98191.56;5021780;28;20089;-65
2022/07/02 05:29:36;;;;;;;2.33;0.60;;;13.30;99.90;;;12.49;100.00;98186.56;5017816;28;20132;-65
2022/07/02 05:32:04;;;;;;;2.15;0.60;;;13.40;99.90;;;12.51;100.00;98189.94;5026997;28;20135;-67
2022/07/02 05:34:31;;;;;;;1.95;0.77;;;13.60;99.90;;;12.58;100.00;98187.94;5052253;28;20524;-67
2022/07/02 05:36:58;;;;;;;1.85;0.60;;;13.60;99.90;;;12.51;100.00;98195.16;5038540;28;20087;-66
2022/07/02 05:39:24;;;;;;;1.40;0.50;;;13.60;99.90;;;12.34;100.00;98188.03;5039977;28;20139;-67
2022/07/02 05:41:51;;;;;;;1.15;0.50;;;13.70;99.90;;;12.67;100.00;98191.94;5040353;28;20053;-66
2022/07/02 05:44:18;;;;;;;1.58;0.70;;;13.80;99.90;;;13.04;100.00;98195.59;5038676;28;20127;-67
2022/07/02 05:46:45;;;;;;;2.28;0.70;;;14.00;99.90;;;13.51;100.00;98187.50;5041122;28;20053;-66
2022/07/02 05:49:12;;;;;;;2.35;0.60;;;14.30;99.90;;;13.60;100.00;98187.09;5040782;28;20049;-66
2022/07/02 05:51:39;;;;;;;2.00;0.65;;;14.60;99.90;;;13.71;100.00;98187.44;5040556;28;20965;-66
2022/07/02 05:54:06;;;;;;;2.58;0.60;;;14.80;99.90;;;13.85;100.00;98191.19;5041551;28;20383;-70
2022/07/02 05:56:33;;;;;;;2.85;0.63;;;14.90;99.90;;;14.16;100.00;98188.84;5040065;28;20136;-67
2022/07/02 05:59:00;;;;;;;3.75;0.65;;;15.10;99.90;;;14.16;100.00;98186.22;5039243;28;20055;-66
2022/07/02 06:01:27;;;;;;;2.10;0.60;;;15.30;99.90;;;14.14;100.00;98188.06;5037813;28;20163;-67
2022/07/02 06:03:54;;;;;;;1.58;0.70;;;15.50;99.90;;;14.63;100.00;98188.31;5038685;28;20061;-66
2022/07/02 06:09:08;;;;;;;1.83;0.50;;;15.80;99.90;;;14.76;100.00;98179.91;5041032;28;20534;-67
2022/07/02 06:11:34;;;;;;;1.90;0.60;;;16.00;99.90;;;14.82;100.00;98182.19;5034000;28;20083;-63
2022/07/02 06:14:01;;;;;;;1.90;0.50;;;16.00;99.90;;;14.81;100.00;98181.34;5038937;28;20049;-66
2022/07/02 06:16:29;;;;;;;1.63;0.47;;;16.10;99.90;;;14.97;100.00;98183.19;5038756;28;20084;-66
2022/07/02 06:18:56;;;;;;;4.38;0.70;;;16.10;99.90;;;15.10;100.00;98184.28;5039675;28;20057;-67
2022/07/02 06:21:24;;;;;;;1.17;0.55;;;16.20;99.90;;;15.19;100.00;98188.16;5038417;28;20133;-67
2022/07/02 06:23:51;;;;;;;2.17;0.50;;;16.40;99.90;;;15.42;100.00;98179.97;5035342;28;20428;-66
2022/07/02 06:26:17;;;;;;;0.85;0.40;;;16.50;99.90;;;15.71;100.00;98177.59;5037185;28;20158;-67
2022/07/02 06:28:45;;;;;;;0.98;0.47;;;16.70;99.90;;;15.84;100.00;98178.63;5037936;28;20719;-67
2022/07/02 06:31:11;;;;;;;2.10;0.50;;;16.90;99.90;;;15.81;100.00;98183.19;5036328;28;20144;-66
2022/07/02 06:33:41;;;;;;;3.42;0.40;;;17.00;99.90;;;15.99;100.00;98178.75;5040052;28;20107;-66
2022/07/02 06:36:14;;;;;;;2.63;0.55;;;17.20;99.90;;;16.22;100.00;98186.16;5035114;28;20397;-66
2022/07/02 06:38:41;;;;;;;1.52;0.30;;;17.40;99.90;;;16.47;100.00;98174.31;5037624;28;20059;-66
2022/07/02 06:43:54;;;;;;;1.15;0.40;;;17.70;99.90;;;16.80;100.00;98174.16;5045754;28;20128;-65
2022/07/02 06:46:21;;;;;;;2.88;0.40;;;;;;;17.18;100.00;98173.66;5046367;28;20101;-65
2022/07/02 06:48:48;;;;;;;1.67;0.40;;;18.10;99.90;;;17.39;100.00;98163.66;5039283;28;20049;-66
2022/07/02 06:51:15;;;;;;;0.68;0.28;;;18.30;99.90;;;17.47;100.00;98164.03;5038295;28;20563;-66
2022/07/02 06:53:42;;;;;;;2.53;0.32;;;;;;;17.93;100.00;98168.25;5035235;28;20144;-66
2022/07/02 06:56:09;;;;;;;1.83;0.40;;;18.70;99.90;;;18.17;100.00;98166.66;5035733;28;20049;-66
2022/07/02 06:58:36;;;;;;;2.15;0.30;;;19.00;99.90;;;18.35;100.00;98167.25;5038143;28;20472;-66
2022/07/02 07:01:03;;;;;;;2.88;0.40;;;19.20;99.90;;;18.63;100.00;98167.25;5048079;28;20149;-65
2022/07/02 07:03:30;;;;;;;5.68;0.30;;;19.60;99.90;;;18.81;100.00;98171.31;5038418;28;20049;-66
2022/07/02 07:05:58;;;;;;;3.13;0.47;;;19.80;99.90;;;19.11;100.00;98167.56;5040068;28;20060;-65
2022/07/02 07:08:25;;;;;;;3.13;0.43;;;20.00;99.90;;;19.21;100.00;98166.00;5034847;28;20508;-66
2022/07/02 07:10:52;;;;;;;1.63;0.30;;;20.20;99.90;;;19.17;100.00;98168.00;5035653;28;20088;-65
2022/07/02 07:13:18;;;;;;;2.63;0.30;;;20.30;99.90;;;19.36;100.00;98167.59;5039927;28;20076;-66
2022/07/02 07:15:45;;;;;;;2.00;0.30;;;20.40;99.90;;;19.33;100.00;98167.78;5041423;28;20132;-66
2022/07/02 07:18:12;;;;;;;1.52;0.30;;;20.40;99.90;;;19.48;100.00;98173.78;5041241;28;20132;-66
2022/07/02 07:20:39;;;;;;;2.63;0.45;;;20.50;99.90;;;19.71;100.00;98160.84;5041375;28;20570;-66
2022/07/02 07:23:06;;;;;;;3.10;0.40;;;20.50;99.90;;;19.85;100.00;98161.53;5037925;28;20089;-65
2022/07/02 07:25:33;;;;;;;1.50;0.38;;;20.60;99.90;;;19.67;100.00;98161.97;5038258;28;20045;-67
2022/07/02 07:28:00;;;;;;;2.10;0.30;;;20.90;99.90;;;19.89;100.00;98163.94;5038163;28;20132;-64
2022/07/02 07:30:27;;;;;;;4.97;0.40;;;20.90;99.90;;;20.09;100.00;98159.88;5037127;28;20520;-66
2022/07/02 07:32:54;;;;;;;1.58;0.20;;;21.00;99.90;;;19.83;100.00;98162.59;5037200;28;20686;-66
2022/07/02 07:35:21;;;;;;;1.50;0.40;;;21.10;99.90;;;19.75;100.00;98163.16;5038372;28;20076;-66
2022/07/02 07:37:57;;;;;;;2.15;0.40;;;21.00;99.90;;;19.94;100.00;98162.69;5040286;28;20079;-65
2022/07/02 07:40:26;;;;;;;1.25;0.28;;;21.00;99.90;;;20.01;100.00;98163.91;5034933;28;20143;-65
2022/07/02 07:42:53;;;;;;;1.33;0.40;;;21.10;99.90;;;20.18;100.00;98164.47;5038727;28;20089;-65
2022/07/02 07:45:20;;;;;;;2.13;0.40;;;21.10;99.90;;;20.25;100.00;98163.94;5035362;28;20069;-67
2022/07/02 07:47:47;;;;;;;2.47;0.30;;;21.20;99.90;;;20.41;100.00;98157.53;5034649;28;20068;-65
2022/07/02 07:50:14;;;;;;;1.83;0.30;;;21.20;99.90;;;20.67;100.00;98151.22;5036165;28;20060;-68
2022/07/02 07:52:41;;;;;;;2.20;0.40;;;21.30;99.90;;;20.57;100.00;98158.13;5036144;28;20081;-66
2022/07/02 07:55:08;;;;;;;1.90;0.50;;;21.40;99.90;;;20.30;100.00;98149.56;5028385;28;20084;-65
2022/07/02 07:57:35;;;;;;;3.05;0.40;;;21.40;99.90;;;20.79;100.00;98152.06;5040594;28;20135;-66
2022/07/02 08:00:05;;;;;;;1.02;0.30;;;21.50;99.90;;;20.78;100.00;98153.06;5035474;28;20077;-66
2022/07/02 08:02:32;;;;;;;1.33;0.30;;;21.70;99.90;;;20.98;100.00;98150.69;5035435;28;20053;-66
2022/07/02 08:05:05;;;;;;;0.60;0.30;;;21.90;99.90;;;21.04;100.00;98144.94;5032817;28;20061;-66
2022/07/02 08:07:39;;;;;;;0.93;0.30;;;22.00;99.90;;;21.37;100.00;98148.56;5036372;28;20471;-67
2022/07/02 08:10:14;;;;;;;2.77;0.37;;;22.10;99.90;;;21.33;100.00;98145.34;5034364;28;20045;-67
2022/07/02 08:12:41;;;;;;;1.42;0.40;;;22.20;99.90;;;20.89;100.00;98145.16;5037475;28;20377;-66
2022/07/02 08:15:09;;;;;;;0.90;0.30;;;22.20;99.90;;;21.19;100.00;98141.13;5039394;28;20084;-66
2022/07/02 08:17:37;;;;;;;4.00;0.40;;;22.20;99.90;;;21.18;100.00;98134.16;5037745;28;20152;-66
2022/07/02 08:20:05;;;;;;;1.00;0.30;;;22.10;99.90;;;21.48;100.00;98135.41;5037247;28;20472;-65
2022/07/02 08:22:33;;;;;;;1.67;0.30;;;22.20;99.90;;;21.73;100.00;98139.59;5037186;28;20136;-66
2022/07/02 08:25:02;;;;;;;2.85;0.40;;;22.40;99.90;;;22.12;100.00;98142.66;5031556;28;20084;-65
2022/07/02 08:27:29;;;;;;;1.27;0.40;;;22.60;99.90;;;21.40;100.00;98143.94;5037465;28;20132;-66
2022/07/02 08:29:56;;;;;;;0.70;0.30;;;22.70;99.90;;;21.67;100.00;98142.75;5036051;28;20136;-66
2022/07/02 08:32:23;;;;;;;0.52;0.30;;;22.50;99.90;;;21.15;100.00;98128.28;5036848;28;20133;-67
2022/07/02 08:34:50;;;;;;;1.02;0.30;;;22.40;99.30;;;21.49;100.00;98130.03;5035714;28;20136;-66
2022/07/02 08:37:17;;;;;;;0.30;0.20;;;22.30;99.30;;;21.72;100.00;98132.66;5033237;28;20555;-66
2022/07/02 08:39:44;;;;;;;2.08;0.20;;;22.50;99.20;;;21.85;100.00;98135.13;5039743;28;20143;-66
2022/07/02 08:42:28;;;;;;;2.50;0.30;;;22.50;99.70;;;21.26;100.00;98136.22;5038241;28;20045;-67
2022/07/02 08:44:58;;;;;;;3.90;0.30;;;22.50;98.50;;;21.89;100.00;98124.19;5051415;28;20495;-66
2022/07/02 08:47:27;;;;;;;0.35;0.20;;;22.50;99.80;;;22.37;100.00;98123.00;5033051;28;20077;-65
2022/07/02 08:49:56;;;;;;;2.25;0.20;;;22.90;98.80;;;21.64;100.00;98114.75;5039698;28;20068;-66
2022/07/02 08:52:25;;;;;;;0.70;0.20;;;;;;;21.80;100.00;98116.16;5033294;28;20076;-66
2022/07/02 08:54:54;;;;;;;0.93;0.22;;;23.10;96.90;;;21.98;100.00;98103.28;5040107;28;20092;-66
2022/07/02 08:57:49;;;;;;;5.88;0.40;;;23.10;98.20;;;22.05;100.00;98107.09;5044287;28;20072;-66
2022/07/02 09:00:20;;;;;;;3.28;0.38;;;23.00;99.20;;;22.28;100.00;98107.91;5044291;28;20145;-65
2022/07/02 09:02:56;;;;;;;2.35;0.20;;;23.10;97.10;;;22.78;100.00;98108.16;5038715;28;20111;-67
2022/07/02 09:05:27;;;;;;;2.60;0.20;;;23.40;98.20;;;22.97;100.00;98104.81;5038000;28;20073;-66
2022/07/02 09:07:56;;;;;;;1.02;0.20;;;;;;;22.68;100.00;98094.84;5040119;28;20059;-66
2022/07/02 09:10:26;;;;;;;0.98;0.20;;;23.90;96.00;;;23.25;100.00;98095.34;5036004;28;20124;-66
2022/07/02 09:12:55;;;;;;;1.50;0.30;;;23.90;95.80;;;23.16;100.00;98098.78;5039035;28;20076;-65
2022/07/02 09:15:23;;;;;;;1.38;0.22;;;24.10;96.70;;;23.59;100.00;98098.56;5055856;28;20053;-65
2022/07/02 09:17:50;;;;;;;1.30;0.30;;;24.40;96.60;;;24.24;100.00;98092.00;5037386;28;20045;-65
2022/07/02 09:20:18;;;;;;;2.25;0.15;;;24.80;95.90;;;24.42;100.00;98087.69;5042958;28;20045;-68
2022/07/02 09:22:49;;;;;;;1.27;0.22;;;25.20;95.60;;;24.49;100.00;98088.81;5040793;28;20084;-66
2022/07/02 09:25:24;;;;;;;2.95;0.20;;;25.30;95.20;;;24.99;100.00;98079.78;5044986;28;20111;-68
2022/07/02 09:28:04;;;;;;;1.02;0.20;;;25.50;95.00;;;25.05;100.00;98077.41;5042423;28;20055;-66
2022/07/02 09:30:36;;;;;;;0.50;0.20;;;25.70;94.80;;;24.81;100.00;98082.34;5038442;28;20053;-66
2022/07/02 09:33:36;;;;;;;1.20;0.28;;;25.50;94.50;;;25.31;100.00;98087.41;5041677;28;20115;-67
2022/07/02 09:36:13;;;;;;;0.63;0.13;;;26.00;93.50;;;25.13;100.00;98092.59;5039706;28;20049;-67
2022/07/02 09:38:51;;;;;;;0.80;0.20;;;25.90;93.70;;;26.14;100.00;98092.72;5042410;28;20129;-66
2022/07/02 09:41:23;;;;;;;0.60;0.20;;;26.30;95.10;;;26.01;100.00;98078.97;5041387;28;20069;-66
2022/07/02 09:43:58;;;;;;;;;;;26.50;93.00;;;26.69;100.00;98084.59;5039059;28;20068;-66
2022/07/02 09:46:29;;;;;;;0.80;0.20;;;26.70;93.60;;;26.42;100.00;98077.50;5039694;28;19921;-65
2022/07/02 09:49:07;;;;;;;1.67;0.20;;;26.70;93.30;;;25.80;100.00;98080.03;5042605;28;20110;-66
2022/07/02 09:51:52;;;;;;;0.65;0.10;;;26.10;93.90;;;26.57;100.00;98083.16;5041045;28;20459;-65
2022/07/02 09:54:22;;;;;;;1.48;0.28;;;26.30;93.80;;;27.40;100.00;98082.72;5039338;28;20464;-66
2022/07/02 09:56:58;;;;;;;0.50;0.20;;;26.80;94.10;;;26.63;100.00;98082.53;5039074;28;20197;-65
2022/07/02 09:59:26;;;;;;;0.80;0.20;;;27.20;93.40;;;25.98;100.00;98085.41;5041428;28;20048;-66
2022/07/02 10:01:53;;;;;;;1.45;0.30;;;27.10;92.20;;;26.06;100.00;98085.47;5040463;28;20140;-66
2022/07/02 10:04:32;;;;;;;2.40;0.25;;;26.40;92.90;;;24.84;100.00;98087.41;5036577;28;20050;-67
2022/07/02 10:07:00;;;;;;;0.70;0.20;;;25.90;92.90;;;24.91;100.00;98085.84;5040439;28;20084;-66
2022/07/02 10:09:27;;;;;;;0.52;0.20;;;25.50;93.90;;;24.39;100.00;98085.31;5040837;28;20159;-65
2022/07/02 10:11:56;;;;;;;2.85;0.20;;;25.50;93.20;;;25.65;100.00;98078.84;5054965;28;20782;-66
2022/07/02 10:14:25;;;;;;;1.88;0.20;;;25.60;93.80;;;25.88;100.00;98077.47;5035693;28;20099;-66
2022/07/02 10:16:53;;;;;;;0.70;0.20;;;25.90;92.90;;;27.16;100.00;98078.03;5041047;28;20535;-66
2022/07/02 10:19:21;;;;;;;1.25;0.17;;;26.50;93.10;;;27.90;100.00;98071.25;5038260;28;20091;-66
2022/07/02 10:21:49;;;;;;;1.20;0.20;;;27.10;93.50;;;28.22;100.00;98072.31;5036829;28;20049;-66
2022/07/02 10:24:25;;;;;;;1.63;0.20;;;27.50;92.50;;;26.90;100.00;98076.22;5053697;28;20759;-67
2022/07/02 10:26:56;;;;;;;0.10;0.10;;;27.00;92.10;;;27.32;100.00;98064.84;5032772;28;20053;-66
2022/07/02 10:29:23;;;;;;;0.40;0.20;;;26.90;92.60;;;27.32;100.00;98064.84;5041040;28;20045;-66
2022/07/02 10:32:09;;;;;;;0.10;0.10;;;27.10;93.40;;;28.28;100.00;98068.13;5036705;28;20867;-65